Time;durP1;ratioP1;P1;durP2;ratioP2;P2;SDS_P1;SDS_P2;PMS_P1;PMS_P2;Temp;Humidity;BMP_temperature;BMP_pressure;BME280_temperature;BME280_humidity;BME280_pressure;Samples;Min_cycle;Max_cycle;Signal;HPM_P1;HPM_P2
2021/01/26 00:01:14;;;;;;;86.40;36.60;;;2.00;99.90;;;;;;5074572;28;20036;-72
2021/01/26 00:03:40;;;;;;;83.18;39.95;;;1.90;99.90;;;;;;5074236;28;20028;-71
2021/01/26 00:06:05;;;;;;;96.93;40.25;;;1.90;99.90;;;;;;5074450;28;20028;-72
2021/01/26 00:08:32;;;;;;;88.28;40.65;;;1.90;99.90;;;;;;5074166;28;20024;-72
2021/01/26 00:10:58;;;;;;;90.15;40.67;;;1.90;99.90;;;;;;5074354;28;20023;-70
2021/01/26 00:13:23;;;;;;;90.57;39.28;;;2.00;99.90;;;;;;5074152;28;20028;-71
2021/01/26 00:15:49;;;;;;;82.75;39.10;;;2.00;99.90;;;;;;5074327;28;20025;-70
2021/01/26 00:18:15;;;;;;;87.68;39.05;;;1.90;99.90;;;;;;5073727;28;20420;-71
2021/01/26 00:20:42;;;;;;;73.18;32.92;;;1.80;99.90;;;;;;5073597;28;20125;-72
2021/01/26 00:23:07;;;;;;;79.45;36.58;;;1.70;99.90;;;;;;5073680;28;20023;-70
2021/01/26 00:25:35;;;;;;;88.13;39.63;;;1.80;99.90;;;;;;5073914;28;20020;-70
2021/01/26 00:28:01;;;;;;;88.00;39.60;;;1.70;99.90;;;;;;5056116;28;20100;-72
2021/01/26 00:30:30;;;;;;;85.05;38.40;;;1.70;99.90;;;;;;5055711;28;20154;-72
2021/01/26 00:32:58;;;;;;;87.30;38.65;;;1.70;99.90;;;;;;5074105;28;20051;-70
2021/01/26 00:35:26;;;;;;;87.93;38.03;;;1.80;99.90;;;;;;5074113;28;20431;-70
2021/01/26 00:37:51;;;;;;;87.68;38.60;;;1.80;99.90;;;;;;5055804;28;20103;-72
2021/01/26 00:40:18;;;;;;;82.28;38.92;;;1.80;99.90;;;;;;5055884;28;20048;-70
2021/01/26 00:42:44;;;;;;;88.35;39.80;;;1.80;99.90;;;;;;5074006;28;20078;-70
2021/01/26 00:45:11;;;;;;;83.65;38.47;;;1.90;99.90;;;;;;5073716;28;20047;-70
2021/01/26 00:47:37;;;;;;;92.40;40.35;;;1.90;99.90;;;;;;5073676;28;20025;-70
2021/01/26 00:50:06;;;;;;;86.20;38.22;;;2.00;99.90;;;;;;5073564;28;20041;-71
2021/01/26 00:52:31;;;;;;;93.88;41.38;;;2.00;99.90;;;;;;5073370;28;20441;-70
2021/01/26 00:54:57;;;;;;;84.93;37.80;;;2.00;99.90;;;;;;5073859;28;20046;-71
2021/01/26 00:57:23;;;;;;;81.93;38.42;;;2.10;99.90;;;;;;5073895;28;20459;-70
2021/01/26 00:59:49;;;;;;;77.70;37.97;;;2.10;99.90;;;;;;5073568;28;20025;-73
2021/01/26 01:02:15;;;;;;;77.97;37.25;;;2.20;99.90;;;;;;5073844;28;20094;-72
2021/01/26 01:04:43;;;;;;;78.57;38.38;;;2.30;99.90;;;;;;5038732;28;20389;-72
2021/01/26 01:07:08;;;;;;;73.00;36.83;;;2.30;99.90;;;;;;5073779;28;20032;-72
2021/01/26 01:09:34;;;;;;;79.78;36.60;;;2.40;99.90;;;;;;5073508;28;20028;-72
2021/01/26 01:12:00;;;;;;;76.80;37.63;;;2.40;99.90;;;;;;5073379;28;20107;-72
2021/01/26 01:14:26;;;;;;;73.40;37.00;;;2.40;99.90;;;;;;5073731;28;20033;-72
2021/01/26 01:16:53;;;;;;;68.13;31.83;;;2.40;99.90;;;;;;5055934;28;20021;-72
2021/01/26 01:19:18;;;;;;;77.85;37.40;;;2.50;99.90;;;;;;5073162;28;20028;-72
2021/01/26 01:21:44;;;;;;;73.30;32.50;;;2.50;99.90;;;;;;5073312;28;20389;-72
2021/01/26 01:24:10;;;;;;;70.78;33.85;;;2.50;99.90;;;;;;5073623;28;20039;-72
2021/01/26 01:26:35;;;;;;;69.82;36.38;;;2.60;99.90;;;;;;5073304;28;20081;-72
2021/01/26 01:29:02;;;;;;;66.13;32.20;;;2.50;99.90;;;;;;5055497;28;20035;-73
2021/01/26 01:31:27;;;;;;;64.57;31.13;;;2.60;99.90;;;;;;5073202;28;20462;-72
2021/01/26 01:33:53;;;;;;;61.00;32.00;;;2.60;99.90;;;;;;5075711;28;20071;-72
2021/01/26 01:36:18;;;;;;;63.35;31.75;;;2.60;99.90;;;;;;5076780;28;20059;-72
2021/01/26 01:38:44;;;;;;;59.92;32.10;;;2.60;99.90;;;;;;5059209;28;20517;-72
2021/01/26 01:41:10;;;;;;;65.50;33.97;;;2.60;99.90;;;;;;5077009;28;20404;-72
2021/01/26 01:43:36;;;;;;;64.13;33.00;;;2.60;99.90;;;;;;5076921;28;20032;-73
2021/01/26 01:46:11;;;;;;;66.47;34.05;;;2.60;99.90;;;;;;5077185;28;20031;-72
2021/01/26 01:48:37;;;;;;;63.92;31.13;;;2.60;99.90;;;;;;5077106;28;20024;-72
2021/01/26 01:51:15;;;;;;;60.58;33.38;;;2.70;99.90;;;;;;5048159;28;20050;-72
2021/01/26 01:53:45;;;;;;;61.05;32.70;;;2.70;99.90;;;;;;5097347;28;20107;-73
2021/01/26 01:56:19;;;;;;;69.07;31.23;;;2.70;99.90;;;;;;5097308;28;20027;-72
2021/01/26 01:58:50;;;;;;;67.68;34.80;;;2.70;99.90;;;;;;5097258;28;20016;-72
2021/01/26 02:01:19;;;;;;;63.35;33.28;;;2.70;99.90;;;;;;5096641;28;20028;-72
2021/01/26 02:03:49;;;;;;;68.55;34.63;;;2.60;99.90;;;;;;5095719;28;20438;-73
2021/01/26 02:06:16;;;;;;;61.10;33.08;;;2.60;99.90;;;;;;5097125;28;20024;-70
2021/01/26 02:08:57;;;;;;;59.92;32.38;;;2.60;99.90;;;;;;5096780;28;20024;-72
2021/01/26 02:11:23;;;;;;;64.95;33.58;;;2.60;99.90;;;;;;5096973;28;20361;-72
2021/01/26 02:13:50;;;;;;;50.55;27.45;;;2.60;99.90;;;;;;5096727;28;20071;-72
2021/01/26 02:16:46;;;;;;;63.50;34.20;;;2.70;99.90;;;;;;5095198;28;20119;-71
2021/01/26 02:19:45;;;;;;;58.70;32.05;;;2.70;99.90;;;;;;5096241;28;20028;-70
2021/01/26 02:22:50;;;;;;;64.95;33.35;;;2.70;99.90;;;;;;5096202;28;20028;-71
2021/01/26 02:25:55;;;;;;;63.13;30.17;;;2.80;99.90;;;;;;5096069;28;20475;-70
2021/01/26 02:28:35;;;;;;;51.97;26.67;;;2.90;99.90;;;;;;5094792;28;20027;-70
2021/01/26 02:31:27;;;;;;;52.47;27.83;;;2.90;99.90;;;;;;5078960;28;20024;-71
2021/01/26 02:34:32;;;;;;;48.97;27.10;;;3.00;99.90;;;;;;5096227;28;20024;-71
2021/01/26 02:40:13;;;;;;;47.97;23.77;;;3.00;99.90;;;;;;5112158;27;20844;-71
2021/01/26 02:42:49;;;;;;;42.15;23.65;;;3.00;99.90;;;;;;5111867;28;20116;-71
2021/01/26 02:45:33;;;;;;;45.50;25.25;;;3.10;99.90;;;;;;5111296;28;20012;-71
2021/01/26 02:51:14;;;;;;;41.88;20.65;;;3.00;99.90;;;;;;5091884;27;20361;-72
2021/01/26 02:53:54;;;;;;;41.63;22.65;;;3.00;99.90;;;;;;5091550;28;20052;-72
2021/01/26 02:56:30;;;;;;;49.47;25.58;;;3.10;99.90;;;;;;5090133;28;20027;-72
2021/01/26 02:59:27;;;;;;;42.83;23.58;;;3.00;99.90;;;;;;5091480;28;20048;-72
2021/01/26 03:02:00;;;;;;;44.80;22.58;;;3.00;99.90;;;;;;5091016;28;20029;-72
2021/01/26 03:04:35;;;;;;;40.28;22.33;;;3.00;99.90;;;;;;5091105;28;20028;-72
2021/01/26 03:07:03;;;;;;;38.97;20.88;;;3.10;99.90;;;;;;5091324;28;20081;-72
2021/01/26 03:09:35;;;;;;;31.08;14.63;;;3.20;99.90;;;;;;5089737;28;20031;-72
2021/01/26 03:12:14;;;;;;;29.40;15.90;;;3.20;99.90;;;;;;5090655;28;20116;-72
2021/01/26 03:14:48;;;;;;;28.42;15.63;;;3.30;99.90;;;;;;5089743;28;20024;-72
2021/01/26 03:17:35;;;;;;;25.27;13.63;;;3.30;99.90;;;;;;5090555;28;20370;-72
2021/01/26 03:20:13;;;;;;;22.60;13.52;;;3.30;99.90;;;;;;5090446;28;20024;-72
2021/01/26 03:22:41;;;;;;;21.73;12.88;;;3.30;99.90;;;;;;5089556;28;20028;-72
2021/01/26 03:25:08;;;;;;;25.60;13.75;;;3.40;99.90;;;;;;5089284;28;20028;-72
2021/01/26 03:27:38;;;;;;;25.08;14.50;;;3.40;99.90;;;;;;5090633;28;20408;-72
2021/01/26 03:30:07;;;;;;;24.40;13.23;;;3.30;99.90;;;;;;5090531;28;20461;-72
2021/01/26 03:32:38;;;;;;;28.02;13.73;;;3.40;99.90;;;;;;5090797;28;20021;-73
2021/01/26 03:35:04;;;;;;;30.02;14.43;;;3.40;99.90;;;;;;5072561;28;20440;-72
2021/01/26 03:37:30;;;;;;;25.75;14.05;;;3.40;99.90;;;;;;5089274;28;20428;-72
2021/01/26 03:39:56;;;;;;;29.30;13.90;;;3.40;99.90;;;;;;5089525;28;20024;-72
2021/01/26 03:42:24;;;;;;;25.95;12.90;;;3.40;99.90;;;;;;5088823;28;20074;-72
2021/01/26 03:44:50;;;;;;;32.47;14.88;;;3.30;99.90;;;;;;5090485;28;20032;-72
2021/01/26 03:47:26;;;;;;;29.15;13.68;;;3.40;99.90;;;;;;5088657;28;20408;-72
2021/01/26 03:50:32;;;;;;;22.88;10.43;;;3.40;99.90;;;;;;5088448;28;20044;-72
2021/01/26 03:53:37;;;;;;;19.73;10.35;;;3.40;99.90;;;;;;5089779;28;20200;-72
2021/01/26 03:56:19;;;;;;;23.92;10.52;;;3.50;99.90;;;;;;5090031;28;20024;-72
2021/01/26 03:59:11;;;;;;;20.30;11.73;;;3.50;99.90;;;;;;5089218;28;20446;-72
2021/01/26 04:01:44;;;;;;;22.80;9.82;;;3.50;99.90;;;;;;5079030;28;20535;-72
2021/01/26 04:04:20;;;;;;;21.40;9.40;;;3.50;99.90;;;;;;5075208;28;20428;-72
2021/01/26 04:06:51;;;;;;;17.63;9.45;;;3.50;99.90;;;;;;5076411;28;20033;-72
2021/01/26 04:09:22;;;;;;;23.38;8.88;;;3.50;99.90;;;;;;5076630;28;20021;-72
2021/01/26 04:12:01;;;;;;;24.67;9.65;;;3.50;99.90;;;;;;5076588;28;20470;-73
2021/01/26 04:14:45;;;;;;;14.43;7.35;;;3.60;99.90;;;;;;5076302;28;20025;-72
2021/01/26 04:17:17;;;;;;;20.38;9.23;;;3.60;99.90;;;;;;5075948;28;20059;-72
2021/01/26 04:19:49;;;;;;;14.50;7.68;;;3.50;99.90;;;;;;5076489;28;20081;-73
2021/01/26 04:22:17;;;;;;;23.65;8.63;;;3.50;99.90;;;;;;5075402;28;20025;-72
2021/01/26 04:24:42;;;;;;;18.80;7.43;;;3.50;99.90;;;;;;5076359;28;20021;-72
2021/01/26 04:27:15;;;;;;;21.17;9.50;;;3.50;99.90;;;;;;5074514;28;20036;-72
2021/01/26 04:29:40;;;;;;;20.33;8.02;;;3.50;99.90;;;;;;5075935;28;20378;-72
2021/01/26 04:32:07;;;;;;;16.23;6.88;;;3.50;99.90;;;;;;5076255;28;20089;-73
2021/01/26 04:34:32;;;;;;;21.63;8.40;;;3.50;99.90;;;;;;5076170;28;20039;-72
2021/01/26 04:36:58;;;;;;;25.13;8.10;;;3.50;99.90;;;;;;5076121;28;20454;-72
2021/01/26 04:39:23;;;;;;;19.23;6.95;;;3.50;99.90;;;;;;5074861;28;20078;-72
2021/01/26 04:41:58;;;;;;;20.30;7.82;;;3.50;99.90;;;;;;5074329;28;20025;-72
2021/01/26 04:45:03;;;;;;;22.27;8.48;;;3.60;99.90;;;;;;5075489;28;20430;-72
2021/01/26 04:47:40;;;;;;;27.55;8.32;;;3.60;99.90;;;;;;5075960;28;20025;-72
2021/01/26 04:53:18;;;;;;;18.63;7.05;;;3.50;99.90;;;;;;5112249;27;20352;-71
2021/01/26 04:56:22;;;;;;;18.70;8.13;;;3.60;99.90;;;;;;5111986;28;20023;-72
2021/01/26 04:59:02;;;;;;;17.85;7.18;;;3.60;99.90;;;;;;5111338;28;20527;-72
2021/01/26 05:02:07;;;;;;;20.85;8.40;;;3.60;99.90;;;;;;5111266;28;20476;-72
2021/01/26 05:04:43;;;;;;;16.42;6.60;;;3.60;99.90;;;;;;5111066;28;20108;-72
2021/01/26 05:07:27;;;;;;;18.95;6.93;;;3.60;99.90;;;;;;5111401;28;20023;-71
2021/01/26 05:10:15;;;;;;;19.13;6.45;;;3.60;99.90;;;;;;5111322;28;20024;-72
2021/01/26 05:12:46;;;;;;;21.67;6.22;;;3.60;99.90;;;;;;5111516;28;20031;-72
2021/01/26 05:15:19;;;;;;;17.48;6.47;;;3.60;99.90;;;;;;5111284;28;20031;-72
2021/01/26 05:17:56;;;;;;;;;;;3.60;99.90;;;;;;5110356;28;20019;-72
2021/01/26 05:20:27;;;;;;;22.08;6.90;;;3.60;99.90;;;;;;5110920;28;20356;-72
2021/01/26 05:23:14;;;;;;;14.27;6.03;;;3.50;99.90;;;;;;5111407;28;20346;-71
2021/01/26 05:25:40;;;;;;;24.33;6.13;;;3.60;99.90;;;;;;5110802;28;20016;-72
2021/01/26 05:28:06;;;;;;;15.80;5.38;;;3.60;99.90;;;;;;5111024;28;20115;-72
2021/01/26 05:30:34;;;;;;;15.90;5.13;;;3.60;99.90;;;;;;5111282;28;20027;-72
2021/01/26 05:33:07;;;;;;;20.50;4.55;;;3.60;99.90;;;;;;5109673;28;20024;-72
2021/01/26 05:35:35;;;;;;;14.02;4.18;;;3.60;99.90;;;;;;5111232;28;20111;-72
2021/01/26 05:38:00;;;;;;;17.23;4.53;;;3.60;99.90;;;;;;5111091;28;20020;-72
2021/01/26 05:40:30;;;;;;;15.02;4.00;;;3.60;99.90;;;;;;5109274;28;20380;-71
2021/01/26 05:43:00;;;;;;;17.02;4.25;;;3.60;99.90;;;;;;5110462;28;20067;-72
2021/01/26 05:45:44;;;;;;;18.00;4.00;;;3.60;99.90;;;;;;5110716;28;20043;-72
2021/01/26 05:48:14;;;;;;;14.60;4.25;;;3.60;99.90;;;;;;5110334;28;20016;-72
2021/01/26 05:50:41;;;;;;;23.08;3.92;;;3.50;99.90;;;;;;5110349;28;20522;-73
2021/01/26 05:53:31;;;;;;;15.52;4.03;;;3.60;99.90;;;;;;5110896;28;20048;-72
2021/01/26 05:56:16;;;;;;;13.70;4.05;;;3.60;99.90;;;;;;5109254;28;20046;-72
2021/01/26 05:58:45;;;;;;;18.23;4.28;;;3.60;99.90;;;;;;5110682;28;20042;-72
2021/01/26 06:01:29;;;;;;;13.88;3.63;;;3.60;99.90;;;;;;5110356;28;20039;-72
2021/01/26 06:04:14;;;;;;;23.85;4.18;;;3.60;99.90;;;;;;5099855;28;20024;-72
2021/01/26 06:06:55;;;;;;;22.23;4.45;;;3.70;99.90;;;;;;5096427;28;20024;-72
2021/01/26 06:09:41;;;;;;;17.95;3.85;;;3.60;99.90;;;;;;5096926;28;20051;-72
2021/01/26 06:12:27;;;;;;;12.30;4.18;;;3.60;99.90;;;;;;5096206;28;20457;-72
2021/01/26 06:17:35;;;;;;;17.38;4.18;;;3.60;99.90;;;;;;5112107;27;20355;-71
2021/01/26 06:20:21;;;;;;;14.93;4.28;;;3.60;99.90;;;;;;5110053;28;20111;-71
2021/01/26 06:22:49;;;;;;;12.70;3.75;;;3.50;99.90;;;;;;5110358;28;20027;-71
2021/01/26 06:25:33;;;;;;;12.40;3.63;;;3.50;99.90;;;;;;5111844;28;20377;-71
2021/01/26 06:28:25;;;;;;;15.32;4.50;;;3.50;99.90;;;;;;5110625;28;20035;-71
2021/01/26 06:31:16;;;;;;;12.48;4.10;;;3.50;99.90;;;;;;5111384;28;20027;-71
2021/01/26 06:34:08;;;;;;;15.25;5.05;;;3.40;99.90;;;;;;5111597;28;20415;-71
2021/01/26 06:36:52;;;;;;;13.98;4.80;;;3.40;99.90;;;;;;5110866;28;20024;-72
2021/01/26 06:39:34;;;;;;;17.92;5.43;;;3.40;99.90;;;;;;5111278;28;20085;-71
2021/01/26 06:42:13;;;;;;;20.85;5.38;;;3.30;99.90;;;;;;5111139;28;20457;-71
2021/01/26 06:44:57;;;;;;;23.73;5.68;;;3.40;99.90;;;;;;5111389;28;20537;-71
2021/01/26 06:47:58;;;;;;;21.08;6.68;;;3.40;99.90;;;;;;5111284;28;20031;-72
2021/01/26 06:50:39;;;;;;;18.60;5.90;;;3.40;99.90;;;;;;5111326;28;20016;-71
2021/01/26 06:53:40;;;;;;;21.33;10.02;;;3.40;99.90;;;;;;5110967;28;20024;-71
2021/01/26 06:56:40;;;;;;;21.25;7.13;;;3.40;99.90;;;;;;5110799;28;20028;-71
2021/01/26 06:59:22;;;;;;;16.63;5.80;;;3.40;99.90;;;;;;5110311;28;20068;-71
2021/01/26 07:02:19;;;;;;;17.73;6.00;;;3.40;99.90;;;;;;5109066;28;20062;-71
2021/01/26 07:05:23;;;;;;;18.42;6.88;;;3.40;99.90;;;;;;5109026;28;20062;-71
2021/01/26 07:13:51;;;;;;;16.02;6.43;;;3.30;99.90;;;;;;5111432;27;20359;-71
2021/01/26 07:16:29;;;;;;;21.98;6.82;;;3.30;99.90;;;;;;5110463;28;20126;-71
2021/01/26 07:19:13;;;;;;;13.25;6.45;;;3.40;99.90;;;;;;5111777;28;20464;-71
2021/01/26 07:22:16;;;;;;;20.05;6.18;;;3.40;99.90;;;;;;5110867;28;20064;-71
2021/01/26 07:24:54;;;;;;;16.00;6.72;;;3.40;99.90;;;;;;5110404;28;20106;-72
2021/01/26 07:27:59;;;;;;;19.42;6.40;;;3.40;99.90;;;;;;5111204;28;20501;-71
2021/01/26 07:30:47;;;;;;;16.45;6.43;;;3.40;99.90;;;;;;5101108;28;20111;-71
2021/01/26 07:33:22;;;;;;;17.48;5.40;;;3.50;99.90;;;;;;5109435;28;20024;-73
2021/01/26 07:36:13;;;;;;;14.60;5.93;;;3.50;99.90;;;;;;5110879;28;20027;-71
2021/01/26 07:39:09;;;;;;;11.75;5.55;;;3.50;99.90;;;;;;5090481;28;20112;-73
2021/01/26 07:41:43;;;;;;;17.70;5.72;;;3.40;99.90;;;;;;5092756;28;20016;-73
2021/01/26 07:44:18;;;;;;;17.60;5.20;;;3.50;99.90;;;;;;5099905;28;20449;-72
2021/01/26 07:46:55;;;;;;;17.75;5.47;;;3.50;99.90;;;;;;5109673;28;20095;-72
2021/01/26 07:49:35;;;;;;;12.25;5.90;;;3.50;99.90;;;;;;5103774;28;20016;-72
2021/01/26 07:52:03;;;;;;;14.65;4.60;;;3.50;99.90;;;;;;5104547;28;20043;-73
2021/01/26 07:54:46;;;;;;;10.82;4.82;;;3.60;99.90;;;;;;5109499;28;20099;-72
2021/01/26 07:57:13;;;;;;;18.05;5.20;;;3.60;99.90;;;;;;5110222;28;20323;-73
2021/01/26 07:59:44;;;;;;;12.13;4.88;;;3.50;99.90;;;;;;5110203;28;20047;-72
2021/01/26 08:02:17;;;;;;;10.15;5.05;;;3.50;99.90;;;;;;5092868;28;20024;-72
2021/01/26 08:04:43;;;;;;;11.07;4.55;;;3.60;99.90;;;;;;5098952;28;20032;-70
2021/01/26 08:07:22;;;;;;;10.77;4.70;;;3.60;99.90;;;;;;5105951;28;20107;-70
2021/01/26 08:09:49;;;;;;;14.65;5.13;;;3.50;99.90;;;;;;5101428;28;20528;-69
2021/01/26 08:12:19;;;;;;;55.22;7.13;;;3.60;99.90;;;;;;5109553;28;20040;-72
2021/01/26 08:14:50;;;;;;;12.05;5.07;;;3.60;99.90;;;;;;5106989;28;20077;-73
2021/01/26 08:17:27;;;;;;;17.33;5.10;;;3.60;99.90;;;;;;5109913;28;20023;-73
2021/01/26 08:20:04;;;;;;;12.45;4.50;;;3.60;99.90;;;;;;5108441;28;20119;-72
2021/01/26 08:22:33;;;;;;;12.68;5.00;;;3.60;99.90;;;;;;5097121;28;20024;-70
2021/01/26 08:25:05;;;;;;;20.05;8.25;;;3.60;99.90;;;;;;5094338;28;20576;-73
2021/01/26 08:27:50;;;;;;;22.90;10.75;;;3.30;99.90;;;;;;5078088;28;20028;-73
2021/01/26 08:30:22;;;;;;;27.00;11.20;;;3.00;99.90;;;;;;5095659;28;20494;-72
2021/01/26 08:33:21;;;;;;;25.80;12.27;;;2.80;99.90;;;;;;5066240;28;20029;-72
2021/01/26 08:38:51;;;;;;;28.00;12.43;;;2.70;99.90;;;;;;5090659;27;20417;-71
2021/01/26 08:41:40;;;;;;;30.60;11.98;;;2.60;99.90;;;;;;5089052;28;20396;-72
2021/01/26 08:44:09;;;;;;;32.08;11.80;;;2.60;99.90;;;;;;5070476;28;20470;-74
2021/01/26 08:46:41;;;;;;;26.30;11.43;;;2.60;99.90;;;;;;5079160;28;20028;-73
2021/01/26 08:49:27;;;;;;;35.97;14.13;;;2.60;99.90;;;;;;5090568;28;20055;-72
2021/01/26 08:51:54;;;;;;;33.60;14.25;;;2.60;99.90;;;;;;5089203;28;20020;-71
2021/01/26 08:54:38;;;;;;;33.95;14.35;;;2.60;99.90;;;;;;5090436;28;20032;-70
2021/01/26 09:00:28;;;;;;;33.58;14.20;;;2.40;99.90;;;;;;5111431;27;20351;-70
2021/01/26 09:02:54;;;;;;;37.90;15.63;;;2.40;99.90;;;;;;5110678;28;20385;-71
2021/01/26 09:08:50;;;;;;;41.55;15.20;;;2.40;99.90;;;;;;5110876;27;20766;-71
2021/01/26 09:11:22;;;;;;;34.78;13.73;;;2.60;99.90;;;;;;5110694;28;20537;-71
2021/01/26 09:13:49;;;;;;;35.92;15.23;;;2.70;99.90;;;;;;5111155;28;20032;-71
2021/01/26 09:16:23;;;;;;;32.17;14.13;;;2.70;99.90;;;;;;5110780;28;20024;-71
2021/01/26 09:19:11;;;;;;;32.92;14.10;;;2.70;99.90;;;;;;5110016;28;20036;-70
2021/01/26 09:21:37;;;;;;;37.03;15.65;;;2.70;99.90;;;;;;5110896;28;20035;-72
2021/01/26 09:24:03;;;;;;;42.30;17.65;;;2.60;99.90;;;;;;5109988;28;20101;-72
2021/01/26 09:26:30;;;;;;;44.55;17.55;;;2.60;99.90;;;;;;5110606;28;20027;-72
2021/01/26 09:28:56;;;;;;;46.33;19.25;;;2.70;99.90;;;;;;5109368;28;20071;-71
2021/01/26 09:31:27;;;;;;;47.40;16.95;;;2.70;99.90;;;;;;5110478;28;20473;-71
2021/01/26 09:34:00;;;;;;;41.72;17.70;;;2.60;99.90;;;;;;5109822;28;20110;-71
2021/01/26 09:36:26;;;;;;;38.78;16.30;;;2.70;99.90;;;;;;5110496;28;20027;-71
2021/01/26 09:38:52;;;;;;;40.70;17.23;;;2.70;99.90;;;;;;5110178;28;20020;-71
2021/01/26 09:41:24;;;;;;;42.17;17.35;;;2.60;99.90;;;;;;5110700;28;20031;-72
2021/01/26 09:43:56;;;;;;;39.33;16.23;;;2.60;99.90;;;;;;5109457;28;20024;-71
2021/01/26 09:46:29;;;;;;;38.28;16.70;;;2.60;99.90;;;;;;5110113;28;20119;-71
2021/01/26 09:49:07;;;;;;;37.42;15.88;;;2.60;99.90;;;;;;5110178;28;20098;-72
2021/01/26 09:51:40;;;;;;;34.22;14.73;;;2.60;99.90;;;;;;5109857;28;20065;-72
2021/01/26 09:54:13;;;;;;;34.60;14.95;;;2.60;99.90;;;;;;5110532;28;20484;-72
2021/01/26 09:56:39;;;;;;;;;;;2.50;99.90;;;;;;5110620;28;20028;-71
2021/01/26 09:59:08;;;;;;;36.67;15.38;;;2.60;99.90;;;;;;5110261;28;19908;-72
2021/01/26 10:01:34;;;;;;;36.90;14.82;;;2.60;99.90;;;;;;5109856;28;20038;-71
2021/01/26 10:04:05;;;;;;;37.92;16.02;;;2.50;99.90;;;;;;5110106;28;20024;-71
2021/01/26 10:06:31;;;;;;;32.95;15.48;;;2.50;99.90;;;;;;5108428;28;20514;-72
2021/01/26 10:09:26;;;;;;;40.42;18.20;;;2.60;99.90;;;;;;5109607;28;20145;-71
2021/01/26 10:11:54;;;;;;;43.75;17.67;;;2.50;99.90;;;;;;5109666;28;20487;-70
2021/01/26 10:14:23;;;;;;;43.28;17.85;;;2.50;99.90;;;;;;5109793;28;20027;-72
2021/01/26 10:16:55;;;;;;;44.22;18.60;;;2.50;99.90;;;;;;5109350;28;20024;-72
2021/01/26 10:19:28;;;;;;;44.40;19.88;;;2.60;99.90;;;;;;5096330;28;20020;-72
2021/01/26 10:22:04;;;;;;;46.65;19.70;;;2.60;99.90;;;;;;5095588;28;20031;-72
2021/01/26 10:24:33;;;;;;;37.25;16.88;;;2.60;99.90;;;;;;5075612;28;20039;-71
2021/01/26 10:27:10;;;;;;;44.13;19.60;;;2.70;99.90;;;;;;5075796;28;20040;-71
2021/01/26 10:29:39;;;;;;;42.28;17.63;;;2.60;99.90;;;;;;5075898;28;20372;-72
2021/01/26 10:32:05;;;;;;;44.80;18.13;;;2.50;99.90;;;;;;5076061;28;20025;-72
2021/01/26 10:34:36;;;;;;;43.00;18.90;;;2.60;99.90;;;;;;5081169;28;20089;-73
2021/01/26 10:43:21;;;;;;;45.45;21.15;;;2.90;99.90;;;;;;5111078;27;20400;-72
2021/01/26 10:45:50;;;;;;;43.25;18.85;;;4.00;99.90;;;;;;5110748;28;20024;-72
2021/01/26 10:48:37;;;;;;;31.00;17.02;;;5.00;99.90;;;;;;5110961;28;20464;-73
2021/01/26 10:54:00;;;;;;;29.90;14.77;;;5.80;99.90;;;;;;5110798;27;20121;-72
2021/01/26 10:56:26;;;;;;;32.10;16.30;;;5.30;99.90;;;;;;5110846;28;20469;-71
2021/01/26 10:58:51;;;;;;;27.58;14.10;;;5.10;99.90;;;;;;5111205;28;20114;-72
2021/01/26 11:01:19;;;;;;;29.83;15.50;;;4.60;99.90;;;;;;5110112;28;20093;-72
2021/01/26 11:03:45;;;;;;;28.75;14.73;;;4.30;99.90;;;;;;5111032;28;20024;-72
2021/01/26 11:06:11;;;;;;;30.70;15.02;;;4.10;99.90;;;;;;5110389;28;20132;-73
2021/01/26 11:08:37;;;;;;;24.50;11.80;;;4.00;99.90;;;;;;5111272;28;20054;-72
2021/01/26 11:11:03;;;;;;;23.13;12.43;;;3.90;99.90;;;;;;5110442;28;20024;-72
2021/01/26 11:13:32;;;;;;;28.55;13.63;;;4.00;99.90;;;;;;5111266;28;20115;-73
2021/01/26 11:15:58;;;;;;;27.42;12.63;;;3.80;99.90;;;;;;5110280;28;20016;-74
2021/01/26 11:18:23;;;;;;;27.95;14.40;;;3.70;99.90;;;;;;5107178;28;20036;-73
2021/01/26 11:20:49;;;;;;;28.13;14.25;;;3.80;99.90;;;;;;5101735;28;20055;-75
2021/01/26 11:23:15;;;;;;;24.33;11.60;;;4.40;99.90;;;;;;5105231;28;20456;-72
2021/01/26 11:25:41;;;;;;;23.23;13.07;;;6.30;99.90;;;;;;5104874;28;20052;-72
2021/01/26 11:28:08;;;;;;;21.90;12.18;;;6.80;99.90;;;;;;5101106;28;20020;-72
2021/01/26 11:30:33;;;;;;;19.50;10.60;;;7.30;99.90;;;;;;5109738;28;20039;-72
2021/01/26 11:33:01;;;;;;;18.15;11.20;;;7.90;99.90;;;;;;5109519;28;20393;-72
2021/01/26 11:35:27;;;;;;;19.75;12.27;;;7.40;99.90;;;;;;5107023;28;20024;-71
2021/01/26 11:37:54;;;;;;;20.98;11.43;;;6.80;99.90;;;;;;5109249;28;20492;-71
2021/01/26 11:40:21;;;;;;;19.80;12.05;;;6.70;99.90;;;;;;5102139;28;20028;-72
2021/01/26 11:42:46;;;;;;;22.52;12.52;;;6.90;99.90;;;;;;5108736;28;20034;-71
2021/01/26 11:45:19;;;;;;;19.38;11.73;;;6.70;99.90;;;;;;5109660;28;20028;-72
2021/01/26 11:47:45;;;;;;;17.92;11.15;;;6.50;99.90;;;;;;5109683;28;20050;-72
2021/01/26 11:50:14;;;;;;;18.45;11.07;;;6.20;99.90;;;;;;5109791;28;20036;-72
2021/01/26 11:52:40;;;;;;;19.90;11.65;;;6.20;99.90;;;;;;5108672;28;20393;-72
2021/01/26 11:55:10;;;;;;;18.95;11.23;;;6.30;99.90;;;;;;5109933;28;20028;-72
2021/01/26 11:57:35;;;;;;;22.15;11.75;;;6.20;99.90;;;;;;5109138;28;20498;-72
2021/01/26 12:00:01;;;;;;;21.13;12.05;;;6.30;99.90;;;;;;5109274;28;20095;-72
2021/01/26 12:02:27;;;;;;;19.27;11.25;;;6.20;99.90;;;;;;5109388;28;20480;-71
2021/01/26 12:04:53;;;;;;;22.95;12.30;;;6.00;99.90;;;;;;5089318;28;20047;-72
2021/01/26 12:07:18;;;;;;;18.73;11.25;;;5.90;99.90;;;;;;5091383;28;20029;-72
2021/01/26 12:09:44;;;;;;;20.27;11.75;;;6.00;99.90;;;;;;5079082;28;20485;-73
2021/01/26 12:12:10;;;;;;;18.10;10.35;;;6.10;99.90;;;;;;5085000;28;20087;-73
2021/01/26 12:14:35;;;;;;;19.50;11.45;;;6.10;99.90;;;;;;5085964;28;20111;-72
2021/01/26 12:17:01;;;;;;;19.55;11.93;;;6.10;99.90;;;;;;5086654;28;20085;-73
2021/01/26 12:19:28;;;;;;;18.73;11.43;;;6.50;99.90;;;;;;5076008;28;20028;-72
2021/01/26 12:21:54;;;;;;;19.35;11.63;;;6.90;99.90;;;;;;5094243;28;20016;-72
2021/01/26 12:24:20;;;;;;;16.17;10.43;;;7.00;99.90;;;;;;5096034;28;20467;-73
2021/01/26 12:26:45;;;;;;;18.73;11.15;;;6.50;99.90;;;;;;5094631;28;20107;-73
2021/01/26 12:29:11;;;;;;;19.00;12.15;;;6.50;99.90;;;;;;5089852;28;20061;-72
2021/01/26 12:31:36;;;;;;;20.17;10.57;;;6.10;99.90;;;;;;5084302;28;20025;-72
2021/01/26 12:34:03;;;;;;;17.67;10.40;;;6.20;99.90;;;;;;5095419;28;20028;-72
2021/01/26 12:36:28;;;;;;;20.13;10.48;;;6.10;99.90;;;;;;5095577;28;20489;-71
2021/01/26 12:38:54;;;;;;;31.95;18.42;;;6.00;99.90;;;;;;5095833;28;20027;-72
2021/01/26 12:41:20;;;;;;;19.70;10.50;;;6.00;99.90;;;;;;5083357;28;20035;-72
2021/01/26 12:43:49;;;;;;;17.05;10.35;;;5.80;99.90;;;;;;5094521;28;20101;-73
2021/01/26 12:46:17;;;;;;;17.30;11.23;;;5.80;99.90;;;;;;5094010;28;20081;-71
2021/01/26 12:48:43;;;;;;;21.02;11.32;;;5.40;99.90;;;;;;5095918;28;20085;-73
2021/01/26 12:51:08;;;;;;;17.67;11.05;;;5.50;99.90;;;;;;5095107;28;20028;-73
2021/01/26 12:53:34;;;;;;;19.10;10.25;;;5.40;99.90;;;;;;5094418;28;20414;-73
2021/01/26 12:55:59;;;;;;;19.70;10.70;;;5.60;99.90;;;;;;5093960;28;20024;-72
2021/01/26 12:58:25;;;;;;;22.80;10.93;;;5.50;99.90;;;;;;5093895;28;20485;-72
2021/01/26 13:00:50;;;;;;;15.82;9.50;;;5.60;99.90;;;;;;5095647;28;20065;-72
2021/01/26 13:03:16;;;;;;;17.05;9.20;;;5.50;99.90;;;;;;5088306;28;20028;-71
2021/01/26 13:05:41;;;;;;;15.98;9.23;;;5.60;99.90;;;;;;5076656;28;20033;-73
2021/01/26 13:08:07;;;;;;;17.60;8.85;;;5.70;99.90;;;;;;5092496;28;20024;-72
2021/01/26 13:10:33;;;;;;;19.52;9.93;;;5.70;99.90;;;;;;5094908;28;20366;-72
2021/01/26 13:12:59;;;;;;;16.63;8.80;;;5.80;99.90;;;;;;5094162;28;20103;-72
2021/01/26 13:15:25;;;;;;;16.90;9.35;;;5.80;99.90;;;;;;5089018;28;20068;-72
2021/01/26 13:17:53;;;;;;;17.63;10.18;;;5.80;99.90;;;;;;5094831;28;20465;-72
2021/01/26 13:20:19;;;;;;;17.02;9.95;;;5.80;99.90;;;;;;5094693;28;20020;-72
2021/01/26 13:22:45;;;;;;;14.95;8.65;;;5.90;99.90;;;;;;5094545;28;20439;-72
2021/01/26 13:25:15;;;;;;;18.05;8.88;;;5.90;99.90;;;;;;5094255;28;20039;-72
2021/01/26 13:27:40;;;;;;;14.85;9.05;;;6.00;99.90;;;;;;5094485;28;20081;-72
2021/01/26 13:30:10;;;;;;;16.13;8.52;;;6.00;99.90;;;;;;5094407;28;20036;-72
2021/01/26 13:32:35;;;;;;;16.70;8.75;;;6.00;99.90;;;;;;5094657;28;20070;-73
2021/01/26 13:35:02;;;;;;;14.70;9.13;;;5.80;99.90;;;;;;5093466;28;20024;-73
2021/01/26 13:37:28;;;;;;;16.85;9.05;;;5.60;99.90;;;;;;5094349;28;20420;-73
2021/01/26 13:39:53;;;;;;;13.98;8.57;;;5.60;99.90;;;;;;5093693;28;20035;-74
2021/01/26 13:42:19;;;;;;;14.85;8.73;;;5.60;99.90;;;;;;5094548;28;20059;-73
2021/01/26 13:44:47;;;;;;;17.17;9.20;;;5.80;99.90;;;;;;5092455;28;20024;-73
2021/01/26 13:47:15;;;;;;;16.20;9.10;;;6.00;99.90;;;;;;5093925;28;20028;-73